Amherst, New Hampshire
Current Conditions -  °F | °C
As of 8:51 PM on Wednesday 26 Nov 2014 (Local Time) from KASH Reporting Station
Freezing Rain Freezing Rain  
Wind Chill: -3°   Ceiling: NA
Heat Index:   Visibility: 1mi
Dew Point:   Wind: 6mph
Humidity: 96%   Direction: 350°N
Pressure: 29.82"   Gusts: NA
Location:  42.86°N, 71.63°W
Report Text: KASH 270151Z 35005KT 1SM -FZRA BR 01/00 A2982 RMK AO2 T00050000 RAB08E29FZRAB09SNE08 P0000 SLP351 $
Loading
Personal Weather Stations






























Interactive Weather Map New forecast layout! Learn more

10-Day Weather Forecast

Advertisements
Track Severe Weather on mobile